Time;durP1;ratioP1;P1;durP2;ratioP2;P2;SDS_P1;SDS_P2;PMS_P1;PMS_P2;Temp;Humidity;BMP_temperature;BMP_pressure;BME280_temperature;BME280_humidity;BME280_pressure;Samples;Min_cycle;Max_cycle;Signal;HPM_P1;HPM_P2
2022/07/26 00:01:28;;;;;;;12.30;2.65;;;18.10;99.90;;;;;;5046470;28;20040;-70
2022/07/26 00:03:53;;;;;;;13.95;3.15;;;18.10;99.90;;;;;;5054724;28;20502;-69
2022/07/26 00:06:19;;;;;;;14.20;2.85;;;18.10;99.90;;;;;;5060665;28;20047;-70
2022/07/26 00:08:46;;;;;;;13.18;2.50;;;18.10;99.90;;;;;;5052008;28;20106;-70
2022/07/26 00:11:12;;;;;;;15.30;3.55;;;18.10;99.90;;;;;;5063746;28;20028;-69
2022/07/26 00:13:37;;;;;;;19.25;4.28;;;18.00;99.90;;;;;;5043325;28;20098;-70
2022/07/26 00:16:03;;;;;;;13.68;3.10;;;18.00;99.90;;;;;;5052307;28;20040;-70
2022/07/26 00:18:29;;;;;;;12.77;2.88;;;18.00;99.90;;;;;;5035764;28;20152;-69
2022/07/26 00:20:55;;;;;;;12.98;2.33;;;18.00;99.90;;;;;;5048314;28;20141;-70
2022/07/26 00:23:21;;;;;;;12.43;3.00;;;18.00;99.90;;;;;;5044492;28;20044;-70
2022/07/26 00:25:46;;;;;;;15.52;3.10;;;18.00;99.90;;;;;;5057432;28;20384;-70
2022/07/26 00:28:13;;;;;;;17.17;3.35;;;17.90;99.90;;;;;;5048795;28;20048;-69
2022/07/26 00:30:38;;;;;;;11.68;2.72;;;17.90;99.90;;;;;;5067429;28;20091;-69
2022/07/26 00:33:06;;;;;;;13.50;3.00;;;17.80;99.90;;;;;;5028084;28;20076;-69
2022/07/26 00:35:32;;;;;;;14.05;3.35;;;17.80;99.90;;;;;;5061758;28;20033;-69
2022/07/26 00:37:58;;;;;;;15.40;2.13;;;17.80;99.90;;;;;;5056722;28;20494;-70
2022/07/26 00:40:24;;;;;;;18.20;2.97;;;17.80;99.90;;;;;;5031125;28;20052;-69
2022/07/26 00:42:49;;;;;;;17.50;3.30;;;17.80;99.90;;;;;;5028240;28;20052;-69
2022/07/26 00:45:16;;;;;;;13.30;2.65;;;17.80;99.90;;;;;;5029607;28;20545;-69
2022/07/26 00:47:42;;;;;;;14.70;2.88;;;17.80;99.90;;;;;;5052199;28;20410;-70
2022/07/26 00:50:12;;;;;;;9.75;2.30;;;17.80;99.90;;;;;;5034760;28;20126;-69
2022/07/26 00:52:41;;;;;;;15.48;2.08;;;17.80;99.90;;;;;;5055376;28;20060;-70
2022/07/26 00:55:07;;;;;;;15.75;2.97;;;17.80;99.90;;;;;;5045869;28;20589;-70
2022/07/26 00:57:34;;;;;;;12.88;2.47;;;17.80;99.90;;;;;;5030115;28;20045;-70
2022/07/26 01:00:05;;;;;;;13.93;2.83;;;17.80;99.90;;;;;;5054274;28;20045;-70
2022/07/26 01:02:31;;;;;;;20.23;2.63;;;17.90;99.90;;;;;;5056049;28;20076;-70
2022/07/26 01:04:57;;;;;;;9.48;2.05;;;17.90;99.90;;;;;;5037339;28;20084;-69
2022/07/26 01:07:23;;;;;;;5.80;1.92;;;17.90;99.90;;;;;;5045772;28;20052;-69
2022/07/26 01:09:49;;;;;;;11.80;2.40;;;17.90;99.90;;;;;;5061577;28;20032;-69
2022/07/26 01:12:15;;;;;;;8.70;2.45;;;17.90;99.90;;;;;;5034240;28;20057;-69
2022/07/26 01:14:43;;;;;;;13.73;2.95;;;17.90;99.90;;;;;;5028934;28;20052;-69
2022/07/26 01:17:09;;;;;;;8.75;2.30;;;17.90;99.90;;;;;;5034721;28;20483;-70
2022/07/26 01:19:35;;;;;;;7.40;1.80;;;17.90;99.90;;;;;;5046838;28;20091;-70
2022/07/26 01:22:01;;;;;;;8.77;1.90;;;17.90;99.90;;;;;;5037196;28;20969;-69
2022/07/26 01:24:26;;;;;;;7.43;1.98;;;17.90;99.90;;;;;;5032719;28;20045;-69
2022/07/26 01:26:54;;;;;;;15.05;2.35;;;17.90;99.90;;;;;;5028959;28;20475;-70
2022/07/26 01:29:20;;;;;;;8.98;1.90;;;17.80;99.90;;;;;;5010968;28;20037;-70
2022/07/26 01:31:49;;;;;;;9.50;2.03;;;17.80;99.90;;;;;;5049011;28;20041;-70
2022/07/26 01:34:15;;;;;;;8.75;1.95;;;17.80;99.90;;;;;;5050686;28;20426;-70
2022/07/26 01:36:41;;;;;;;12.50;2.28;;;17.80;99.90;;;;;;5046914;28;20053;-70
2022/07/26 01:39:07;;;;;;;11.15;1.70;;;17.70;99.90;;;;;;5027753;28;20080;-69
2022/07/26 01:41:33;;;;;;;8.23;2.22;;;17.70;99.90;;;;;;5046147;28;20087;-69
2022/07/26 01:43:59;;;;;;;7.43;1.73;;;17.70;99.90;;;;;;5049319;28;20045;-69
2022/07/26 01:46:25;;;;;;;9.35;2.03;;;17.70;99.90;;;;;;5045222;28;20052;-70
2022/07/26 01:48:51;;;;;;;14.65;2.25;;;17.70;99.90;;;;;;5033319;28;20041;-69
2022/07/26 01:51:17;;;;;;;7.78;2.17;;;17.70;99.90;;;;;;5027167;28;20056;-70
2022/07/26 01:53:46;;;;;;;9.70;2.58;;;17.70;99.90;;;;;;5050401;28;20493;-70
2022/07/26 01:56:13;;;;;;;7.05;1.95;;;17.70;99.90;;;;;;5035836;28;20068;-69
2022/07/26 01:58:39;;;;;;;7.97;1.60;;;17.70;99.90;;;;;;5045418;28;20056;-70
2022/07/26 02:01:06;;;;;;;12.93;2.10;;;17.70;99.90;;;;;;5047350;28;20620;-69
2022/07/26 02:03:31;;;;;;;6.15;1.65;;;17.70;99.90;;;;;;5050064;28;20049;-69
2022/07/26 02:05:57;;;;;;;7.65;1.75;;;17.70;99.90;;;;;;5057668;28;20399;-70
2022/07/26 02:08:23;;;;;;;6.07;2.10;;;17.70;99.90;;;;;;5044813;28;20494;-69
2022/07/26 02:11:05;;;;;;;6.80;1.50;;;17.80;99.90;;;;;;5028907;28;20056;-70
2022/07/26 02:13:40;;;;;;;7.30;2.13;;;17.80;99.90;;;;;;5026806;28;20044;-69
2022/07/26 02:16:08;;;;;;;5.72;2.15;;;17.80;99.90;;;;;;5059289;28;20051;-69
2022/07/26 02:18:36;;;;;;;5.73;1.73;;;17.80;99.90;;;;;;5031346;28;20097;-70
2022/07/26 02:21:03;;;;;;;7.20;1.83;;;17.80;99.90;;;;;;5047884;28;20291;-69
2022/07/26 02:23:29;;;;;;;6.35;1.60;;;17.80;99.90;;;;;;5023163;28;20105;-70
2022/07/26 02:25:55;;;;;;;7.88;2.20;;;17.80;99.90;;;;;;5046747;28;20037;-69
2022/07/26 02:28:22;;;;;;;8.63;1.75;;;17.80;99.90;;;;;;5050457;28;20227;-69
2022/07/26 02:30:49;;;;;;;10.52;1.90;;;17.70;99.90;;;;;;5030874;28;20068;-69
2022/07/26 02:33:16;;;;;;;5.95;1.73;;;17.70;99.90;;;;;;5051370;28;20051;-69
2022/07/26 02:35:43;;;;;;;4.55;1.65;;;17.70;99.90;;;;;;5041260;28;20064;-69
2022/07/26 02:38:11;;;;;;;6.93;1.70;;;17.70;99.90;;;;;;5035023;28;20383;-69
2022/07/26 02:40:39;;;;;;;9.77;7.85;;;17.70;99.90;;;;;;5049857;28;20442;-70
2022/07/26 02:43:06;;;;;;;11.52;9.32;;;17.70;99.90;;;;;;5048059;28;20491;-69
2022/07/26 02:45:32;;;;;;;18.88;15.27;;;17.60;99.90;;;;;;5055932;28;20417;-69
2022/07/26 02:47:58;;;;;;;17.38;14.82;;;17.50;99.90;;;;;;5037104;28;20040;-70
2022/07/26 02:50:26;;;;;;;22.20;15.43;;;17.50;99.90;;;;;;5061053;28;20391;-69
2022/07/26 02:52:52;;;;;;;16.77;10.00;;;17.40;99.90;;;;;;5048815;28;20044;-69
2022/07/26 02:55:21;;;;;;;17.92;7.38;;;17.40;99.90;;;;;;5030970;28;20052;-69
2022/07/26 02:57:47;;;;;;;13.18;4.45;;;17.30;99.90;;;;;;5025575;28;20056;-69
2022/07/26 03:00:16;;;;;;;17.05;6.70;;;17.30;99.90;;;;;;5043917;28;20052;-70
2022/07/26 03:02:43;;;;;;;21.85;9.02;;;17.30;99.90;;;;;;5037448;28;20045;-70
2022/07/26 03:05:09;;;;;;;17.27;9.00;;;17.30;99.90;;;;;;5047583;28;20051;-69
2022/07/26 03:07:35;;;;;;;17.60;5.97;;;17.30;99.90;;;;;;5049637;28;20103;-70
2022/07/26 03:10:01;;;;;;;11.52;3.63;;;17.20;99.90;;;;;;5037823;28;20044;-70
2022/07/26 03:12:26;;;;;;;13.27;3.47;;;17.20;99.90;;;;;;5053954;28;20544;-69
2022/07/26 03:14:52;;;;;;;11.55;2.20;;;17.20;99.90;;;;;;5031098;28;20048;-69
2022/07/26 03:17:18;;;;;;;9.43;2.50;;;17.10;99.90;;;;;;5048196;28;20092;-69
2022/07/26 03:19:44;;;;;;;11.23;1.92;;;17.10;99.90;;;;;;5048820;28;20049;-69
2022/07/26 03:22:10;;;;;;;7.35;1.70;;;17.10;99.90;;;;;;5067081;28;20048;-70
2022/07/26 03:24:36;;;;;;;6.28;1.63;;;17.10;99.90;;;;;;5052152;28;20040;-69
2022/07/26 03:27:02;;;;;;;8.63;1.90;;;17.10;99.90;;;;;;5047425;28;20850;-69
2022/07/26 03:29:28;;;;;;;9.38;1.75;;;17.10;99.90;;;;;;5029663;28;20406;-69
2022/07/26 03:31:54;;;;;;;10.13;2.20;;;17.10;99.90;;;;;;5035968;28;20049;-69
2022/07/26 03:34:20;;;;;;;4.55;1.33;;;17.00;99.90;;;;;;5048552;28;20047;-70
2022/07/26 03:36:45;;;;;;;5.45;1.20;;;17.10;99.90;;;;;;5048562;28;20037;-69
2022/07/26 03:39:11;;;;;;;3.45;1.17;;;17.00;99.90;;;;;;5029762;28;20033;-69
2022/07/26 03:41:37;;;;;;;5.70;1.02;;;17.00;99.90;;;;;;5018632;28;20036;-69
2022/07/26 03:44:03;;;;;;;2.20;0.85;;;17.00;99.90;;;;;;5047470;28;20049;-69
2022/07/26 03:46:29;;;;;;;4.05;1.05;;;17.00;99.90;;;;;;5048534;28;20275;-68
2022/07/26 03:48:54;;;;;;;2.40;0.57;;;17.00;99.90;;;;;;5029504;28;20048;-69
2022/07/26 03:51:20;;;;;;;8.30;1.20;;;17.00;99.90;;;;;;5032358;28;20122;-69
2022/07/26 03:53:46;;;;;;;2.20;0.75;;;17.00;99.90;;;;;;5014509;28;20251;-69
2022/07/26 03:56:27;;;;;;;4.93;1.08;;;17.00;99.90;;;;;;5021006;28;20527;-69
2022/07/26 03:58:54;;;;;;;4.85;1.15;;;17.00;99.90;;;;;;5048769;28;20055;-69
2022/07/26 04:01:20;;;;;;;3.72;1.00;;;16.90;99.90;;;;;;5050107;28;20545;-69
2022/07/26 04:03:46;;;;;;;4.85;0.80;;;16.90;99.90;;;;;;5063948;28;20494;-70
2022/07/26 04:06:12;;;;;;;2.88;0.82;;;16.90;99.90;;;;;;5038506;28;20033;-68
2022/07/26 04:08:38;;;;;;;8.77;1.17;;;16.90;99.90;;;;;;5034258;28;20052;-69
2022/07/26 04:11:04;;;;;;;5.72;1.13;;;16.90;99.90;;;;;;5029990;28;20044;-69
2022/07/26 04:13:29;;;;;;;7.53;1.00;;;17.00;99.90;;;;;;5014090;28;20045;-70
2022/07/26 04:15:55;;;;;;;2.13;0.68;;;16.90;99.90;;;;;;5030372;28;20131;-69
2022/07/26 04:18:21;;;;;;;3.03;1.00;;;16.90;99.90;;;;;;5028710;28;20049;-69
2022/07/26 04:20:47;;;;;;;4.38;0.60;;;16.90;99.90;;;;;;5030019;28;20045;-69
2022/07/26 04:23:13;;;;;;;4.90;0.93;;;16.90;99.90;;;;;;5033336;28;20052;-69
2022/07/26 04:25:40;;;;;;;1.80;0.68;;;16.90;99.90;;;;;;5056183;28;20059;-69
2022/07/26 04:28:05;;;;;;;3.83;0.63;;;17.00;99.90;;;;;;5047026;28;20045;-68
2022/07/26 04:30:31;;;;;;;5.47;0.80;;;17.00;99.90;;;;;;5046706;28;20036;-69
2022/07/26 04:32:57;;;;;;;3.42;0.70;;;17.00;99.90;;;;;;5031520;28;20045;-69
2022/07/26 04:35:24;;;;;;;9.25;0.98;;;17.00;99.90;;;;;;5058394;28;20502;-69
2022/07/26 04:37:50;;;;;;;3.08;0.95;;;17.00;99.90;;;;;;5029680;28;20044;-69
2022/07/26 04:40:18;;;;;;;2.78;0.88;;;17.00;99.90;;;;;;5027930;28;20055;-69
2022/07/26 04:42:44;;;;;;;3.47;0.70;;;17.00;99.90;;;;;;5029761;28;20510;-69
2022/07/26 04:45:11;;;;;;;3.05;0.90;;;17.00;99.90;;;;;;5055122;28;20056;-69
2022/07/26 04:47:41;;;;;;;4.57;1.17;;;17.00;99.90;;;;;;5046842;28;20064;-69
2022/07/26 04:50:07;;;;;;;4.47;1.25;;;17.00;99.90;;;;;;5026898;28;20053;-69
2022/07/26 04:52:34;;;;;;;3.33;0.80;;;17.00;99.90;;;;;;5046038;28;20491;-69
2022/07/26 04:54:59;;;;;;;4.28;0.85;;;17.00;99.90;;;;;;5055568;28;20478;-70
2022/07/26 04:57:25;;;;;;;5.30;0.82;;;17.00;99.90;;;;;;5059170;28;20041;-69
2022/07/26 04:59:51;;;;;;;4.35;0.75;;;17.00;99.90;;;;;;5025750;28;20084;-69
2022/07/26 05:02:17;;;;;;;5.20;1.17;;;16.90;99.90;;;;;;5034633;28;20040;-69
2022/07/26 05:04:43;;;;;;;1.65;0.50;;;16.70;99.90;;;;;;5050030;28;20047;-69
2022/07/26 05:07:09;;;;;;;3.50;0.77;;;16.70;99.90;;;;;;5049462;28;20059;-70
2022/07/26 05:09:36;;;;;;;4.15;0.77;;;16.70;99.90;;;;;;5045728;28;20483;-69
2022/07/26 05:12:02;;;;;;;1.55;0.60;;;16.70;99.90;;;;;;5047576;28;20052;-70
2022/07/26 05:14:28;;;;;;;7.45;0.95;;;16.60;99.90;;;;;;5045456;28;20144;-69
2022/07/26 05:16:53;;;;;;;6.20;0.90;;;16.60;99.90;;;;;;5053367;28;20124;-69
2022/07/26 05:19:19;;;;;;;6.43;0.55;;;16.60;99.90;;;;;;5027560;28;20051;-68
2022/07/26 05:21:45;;;;;;;3.47;0.63;;;16.70;99.90;;;;;;5046634;28;20121;-69
2022/07/26 05:24:10;;;;;;;2.15;0.63;;;16.70;99.90;;;;;;5028506;28;20049;-69
2022/07/26 05:26:36;;;;;;;4.47;0.75;;;16.80;99.90;;;;;;5049637;28;20048;-68
2022/07/26 05:29:02;;;;;;;2.42;0.85;;;16.80;99.90;;;;;;5046683;28;20384;-69
2022/07/26 05:31:28;;;;;;;2.97;0.43;;;16.80;99.90;;;;;;5046818;28;20044;-69
2022/07/26 05:33:56;;;;;;;1.30;0.60;;;16.80;99.90;;;;;;5037073;28;20128;-70
2022/07/26 05:36:22;;;;;;;4.88;0.80;;;16.90;99.90;;;;;;5033609;28;20414;-69
2022/07/26 05:38:48;;;;;;;3.08;0.73;;;16.90;99.90;;;;;;5048065;28;20078;-69
2022/07/26 05:41:13;;;;;;;5.72;0.82;;;16.90;99.90;;;;;;5040545;28;20049;-69
2022/07/26 05:43:39;;;;;;;7.07;1.23;;;16.90;99.90;;;;;;5031571;28;20149;-68
2022/07/26 05:46:05;;;;;;;5.35;0.70;;;16.90;99.90;;;;;;5048109;28;20052;-69
2022/07/26 05:48:30;;;;;;;11.77;1.65;;;16.90;99.90;;;;;;5026859;28;20040;-69
2022/07/26 05:50:58;;;;;;;2.67;0.70;;;16.80;99.90;;;;;;5027495;28;20071;-69
2022/07/26 05:53:24;;;;;;;4.10;0.93;;;16.50;99.90;;;;;;5055754;28;20139;-69
2022/07/26 05:55:50;;;;;;;5.18;0.80;;;16.40;99.90;;;;;;5057000;28;20064;-69
2022/07/26 05:58:16;;;;;;;4.00;0.73;;;16.20;99.90;;;;;;5055806;28;20410;-69
2022/07/26 06:00:41;;;;;;;4.00;1.02;;;16.20;99.90;;;;;;5051319;28;20214;-69
2022/07/26 06:03:22;;;;;;;3.95;0.90;;;16.10;99.90;;;;;;5050509;28;20384;-69
2022/07/26 06:05:53;;;;;;;4.43;0.93;;;16.10;99.90;;;;;;5046236;28;20097;-69
2022/07/26 06:08:20;;;;;;;5.65;1.40;;;16.20;99.90;;;;;;5043859;28;20123;-70
2022/07/26 06:10:49;;;;;;;3.65;0.90;;;16.20;99.90;;;;;;5062277;28;20437;-69
2022/07/26 06:13:15;;;;;;;7.25;1.38;;;16.30;99.90;;;;;;5032791;28;20045;-69
2022/07/26 06:15:42;;;;;;;2.80;0.70;;;16.40;99.90;;;;;;5030946;28;20549;-70
2022/07/26 06:18:08;;;;;;;6.72;1.10;;;16.40;99.90;;;;;;5051979;28;20509;-69
2022/07/26 06:20:41;;;;;;;10.73;1.55;;;16.50;99.90;;;;;;5062438;28;20510;-69
2022/07/26 06:23:07;;;;;;;5.88;0.98;;;16.60;99.90;;;;;;5046598;28;20363;-70
2022/07/26 06:25:32;;;;;;;5.68;0.80;;;16.60;99.90;;;;;;5032544;28;20550;-69
2022/07/26 06:28:00;;;;;;;7.88;1.27;;;16.60;99.90;;;;;;5030038;28;20492;-68
2022/07/26 06:30:26;;;;;;;5.50;1.38;;;16.60;99.90;;;;;;5050363;28;20056;-70
2022/07/26 06:32:51;;;;;;;4.00;1.20;;;16.70;99.90;;;;;;5034404;28;20052;-69
2022/07/26 06:35:17;;;;;;;5.13;1.17;;;16.80;99.90;;;;;;5032419;28;20040;-70
2022/07/26 06:37:44;;;;;;;4.15;1.08;;;16.70;99.90;;;;;;5049049;28;20049;-70
2022/07/26 06:40:10;;;;;;;6.38;0.93;;;16.80;99.90;;;;;;5050245;28;20044;-70
2022/07/26 06:42:37;;;;;;;5.45;1.02;;;16.80;99.90;;;;;;5051669;28;20433;-70
2022/07/26 06:45:04;;;;;;;7.40;1.45;;;16.90;99.90;;;;;;5033111;28;20044;-69
2022/07/26 06:47:30;;;;;;;6.07;1.20;;;16.90;99.90;;;;;;5032449;28;20072;-69
2022/07/26 06:49:55;;;;;;;4.40;0.88;;;17.00;99.90;;;;;;5029387;28;20506;-70
2022/07/26 06:52:21;;;;;;;7.57;1.08;;;16.90;99.90;;;;;;5038033;28;20069;-70
2022/07/26 06:54:47;;;;;;;6.72;1.15;;;17.00;99.90;;;;;;5036368;28;20449;-69
2022/07/26 06:57:13;;;;;;;8.25;1.08;;;17.00;99.90;;;;;;5051747;28;20051;-70
2022/07/26 06:59:39;;;;;;;9.55;1.60;;;17.00;99.90;;;;;;5057972;28;20037;-69
2022/07/26 07:02:05;;;;;;;5.25;0.80;;;17.00;99.90;;;;;;5036119;28;20048;-69
2022/07/26 07:04:34;;;;;;;3.50;0.82;;;17.10;99.90;;;;;;5058576;28;20036;-70
2022/07/26 07:07:04;;;;;;;7.03;1.30;;;17.20;99.90;;;;;;5029970;28;20049;-69
2022/07/26 07:09:31;;;;;;;5.57;0.88;;;17.20;99.90;;;;;;5049492;28;20478;-68
2022/07/26 07:11:57;;;;;;;4.60;0.93;;;17.30;99.90;;;;;;5029840;28;20157;-69
2022/07/26 07:14:23;;;;;;;3.38;0.77;;;17.30;99.90;;;;;;5060904;28;20055;-69
2022/07/26 07:16:49;;;;;;;2.00;0.60;;;17.30;99.90;;;;;;5048787;28;20072;-69
2022/07/26 07:19:14;;;;;;;6.20;1.20;;;17.20;99.90;;;;;;5048604;28;20446;-69
2022/07/26 07:21:40;;;;;;;3.58;0.90;;;17.20;99.90;;;;;;5031662;28;20052;-69
2022/07/26 07:24:06;;;;;;;3.55;0.70;;;17.30;99.90;;;;;;5031361;28;20087;-68
2022/07/26 07:26:32;;;;;;;5.10;1.48;;;17.30;99.90;;;;;;5054332;28;20073;-69
2022/07/26 07:28:57;;;;;;;7.78;1.17;;;17.20;99.90;;;;;;5022181;28;20051;-69
2022/07/26 07:31:24;;;;;;;4.88;0.95;;;17.30;99.90;;;;;;5050414;28;20068;-68
2022/07/26 07:33:50;;;;;;;4.68;1.23;;;17.30;99.90;;;;;;5051368;28;20479;-69
2022/07/26 07:36:16;;;;;;;7.05;1.23;;;17.40;99.90;;;;;;5038057;28;20041;-69
2022/07/26 07:38:44;;;;;;;8.93;1.30;;;17.40;99.90;;;;;;5054210;28;20524;-69
2022/07/26 07:41:09;;;;;;;4.47;1.13;;;17.60;99.90;;;;;;5067172;28;20028;-69
2022/07/26 07:43:35;;;;;;;4.45;1.10;;;17.60;99.90;;;;;;5033912;28;20063;-69
2022/07/26 07:46:01;;;;;;;6.43;1.52;;;17.60;99.90;;;;;;5066862;28;21000;-70
2022/07/26 07:48:27;;;;;;;11.65;1.40;;;17.40;99.90;;;;;;5068787;28;20048;-69
2022/07/26 07:50:52;;;;;;;9.88;1.63;;;17.00;99.90;;;;;;5048770;28;20070;-68
2022/07/26 07:53:18;;;;;;;7.13;1.33;;;16.70;99.90;;;;;;5066981;28;20048;-69
2022/07/26 07:55:44;;;;;;;7.57;1.45;;;16.50;99.90;;;;;;5049419;28;20463;-69
2022/07/26 07:58:10;;;;;;;7.97;1.70;;;16.40;99.90;;;;;;5066338;28;20506;-69
2022/07/26 08:00:35;;;;;;;7.57;1.60;;;16.40;99.90;;;;;;5047777;28;20286;-69
2022/07/26 08:03:01;;;;;;;5.90;1.55;;;16.40;99.90;;;;;;5062280;28;20084;-69
2022/07/26 08:05:27;;;;;;;10.13;1.73;;;16.60;99.90;;;;;;5064192;28;20033;-69
2022/07/26 08:07:52;;;;;;;11.25;1.65;;;16.80;99.90;;;;;;5057316;28;20068;-69
2022/07/26 08:10:18;;;;;;;7.90;1.45;;;17.00;99.90;;;;;;5039889;28;20057;-68
2022/07/26 08:12:44;;;;;;;6.10;0.90;;;17.20;99.90;;;;;;5047835;28;20041;-69
2022/07/26 08:15:11;;;;;;;8.32;1.70;;;17.50;99.90;;;;;;5032599;28;20060;-69
2022/07/26 08:17:37;;;;;;;8.23;1.30;;;17.60;99.90;;;;;;5050634;28;20045;-69
2022/07/26 08:20:03;;;;;;;7.78;1.23;;;17.60;99.90;;;;;;5026412;28;20122;-69
2022/07/26 08:22:29;;;;;;;7.57;1.60;;;17.60;99.90;;;;;;5045225;28;20430;-70
2022/07/26 08:24:55;;;;;;;4.95;1.17;;;17.60;99.90;;;;;;5043705;28;20106;-69
2022/07/26 08:27:20;;;;;;;6.75;1.30;;;17.70;99.90;;;;;;5056715;28;20047;-70
2022/07/26 08:29:46;;;;;;;4.07;1.10;;;17.70;99.90;;;;;;5063956;28;20044;-70
2022/07/26 08:32:12;;;;;;;10.00;1.33;;;17.50;99.90;;;;;;5064177;28;20803;-69
2022/07/26 08:34:38;;;;;;;5.10;1.35;;;17.40;99.90;;;;;;5041181;28;20140;-69
2022/07/26 08:37:04;;;;;;;9.27;1.35;;;17.40;99.90;;;;;;5063758;28;20131;-70
2022/07/26 08:39:30;;;;;;;3.45;1.00;;;17.40;99.90;;;;;;5052265;28;20132;-69
2022/07/26 08:41:56;;;;;;;8.20;1.10;;;17.30;99.90;;;;;;5039802;28;20060;-70
2022/07/26 08:44:27;;;;;;;7.10;1.05;;;17.30;99.90;;;;;;5028246;28;20060;-69
2022/07/26 08:46:53;;;;;;;5.75;1.45;;;17.40;99.90;;;;;;5028891;28;20052;-69
2022/07/26 08:49:18;;;;;;;3.75;0.88;;;17.40;99.90;;;;;;5044274;28;20505;-69
2022/07/26 08:51:44;;;;;;;6.13;1.25;;;17.50;99.90;;;;;;5030346;28;20063;-69
2022/07/26 08:54:14;;;;;;;4.67;1.40;;;17.60;97.90;;;;;;5054466;28;20057;-69
2022/07/26 08:56:48;;;;;;;7.75;1.52;;;17.90;97.70;;;;;;5029940;28;20049;-69
2022/07/26 08:59:16;;;;;;;4.50;1.10;;;18.30;98.90;;;;;;5036136;28;20071;-69
2022/07/26 09:01:56;;;;;;;5.32;1.33;;;18.40;95.90;;;;;;5038104;28;20059;-69
2022/07/26 09:04:31;;;;;;;7.50;1.45;;;18.30;95.90;;;;;;5054120;28;20087;-69
2022/07/26 09:07:09;;;;;;;6.07;1.52;;;18.20;94.70;;;;;;5028317;28;20498;-69
2022/07/26 09:09:55;;;;;;;8.60;1.90;;;18.20;96.70;;;;;;5061710;28;20049;-69
2022/07/26 09:12:22;;;;;;;8.13;1.98;;;18.20;97.90;;;;;;5029712;28;20044;-69
2022/07/26 09:14:49;;;;;;;8.48;1.27;;;18.40;99.70;;;;;;5046612;28;20048;-70
2022/07/26 09:17:17;;;;;;;7.22;1.73;;;18.40;96.70;;;;;;5043528;28;20498;-69
2022/07/26 09:20:06;;;;;;;6.07;1.55;;;18.40;91.50;;;;;;5040574;28;20148;-69
2022/07/26 09:22:32;;;;;;;4.28;1.20;;;18.40;90.20;;;;;;5041906;28;20474;-69
2022/07/26 09:24:58;;;;;;;9.27;1.48;;;18.30;93.90;;;;;;5048042;28;20444;-69
2022/07/26 09:27:32;;;;;;;6.07;1.20;;;18.30;89.70;;;;;;5028471;28;20045;-69
2022/07/26 09:30:06;;;;;;;15.20;2.17;;;18.10;91.30;;;;;;5040947;28;20045;-69
2022/07/26 09:32:32;;;;;;;8.55;1.60;;;18.10;93.50;;;;;;5023619;28;20044;-69
2022/07/26 09:35:15;;;;;;;8.13;1.83;;;18.10;92.70;;;;;;5063780;28;20097;-70
2022/07/26 09:37:42;;;;;;;16.88;2.70;;;18.10;98.30;;;;;;5060828;28;20045;-69
2022/07/26 09:40:14;;;;;;;13.00;2.55;;;18.20;99.80;;;;;;5046939;28;20051;-69
2022/07/26 09:42:58;;;;;;;14.80;3.03;;;18.20;99.90;;;;;;5053762;28;20114;-69
2022/07/26 09:45:25;;;;;;;19.50;3.30;;;18.00;97.10;;;;;;5046431;28;20473;-69
2022/07/26 09:47:51;;;;;;;14.85;2.55;;;17.80;99.50;;;;;;5065742;28;20044;-69
2022/07/26 09:50:18;;;;;;;16.10;2.92;;;17.70;99.90;;;;;;5043333;28;20043;-69
2022/07/26 09:52:58;;;;;;;13.27;2.42;;;17.60;99.90;;;;;;5045129;28;20106;-69
2022/07/26 09:55:24;;;;;;;;;;;17.60;96.80;;;;;;5063141;28;20060;-69
2022/07/26 09:57:50;;;;;;;14.85;2.50;;;17.60;96.80;;;;;;5066447;28;20310;-69
2022/07/26 10:00:17;;;;;;;11.70;2.85;;;17.60;96.20;;;;;;5063777;28;20059;-69
2022/07/26 10:02:43;;;;;;;17.95;3.38;;;17.60;96.50;;;;;;5062355;28;20048;-69
2022/07/26 10:05:09;;;;;;;11.38;2.75;;;17.50;97.80;;;;;;5044407;28;20121;-69
2022/07/26 10:07:36;;;;;;;18.25;2.45;;;17.50;98.20;;;;;;5020314;28;20417;-69
2022/07/26 10:10:07;;;;;;;11.52;2.50;;;17.60;97.60;;;;;;5058859;28;20049;-68
2022/07/26 10:12:34;;;;;;;14.93;2.60;;;17.70;97.30;;;;;;5024422;28;20391;-69
2022/07/26 10:15:00;;;;;;;14.05;3.00;;;17.70;93.60;;;;;;5048188;28;20095;-70
2022/07/26 10:17:29;;;;;;;10.90;2.53;;;17.80;94.50;;;;;;5023389;28;20423;-70
2022/07/26 10:20:00;;;;;;;11.23;2.57;;;17.80;92.80;;;;;;5049718;28;20056;-70
2022/07/26 10:22:29;;;;;;;12.90;2.03;;;17.70;96.60;;;;;;5026436;28;20137;-69
2022/07/26 10:24:56;;;;;;;9.77;2.47;;;17.70;96.40;;;;;;5051028;28;20048;-69
2022/07/26 10:27:38;;;;;;;11.77;2.50;;;17.60;95.90;;;;;;5036615;28;20150;-68
2022/07/26 10:30:21;;;;;;;14.02;2.70;;;17.70;96.90;;;;;;5027027;28;20052;-69
2022/07/26 10:32:50;;;;;;;11.95;1.88;;;17.60;93.70;;;;;;5029603;28;20911;-69
2022/07/26 10:35:40;;;;;;;10.90;2.38;;;17.60;91.20;;;;;;5059117;28;20409;-69
2022/07/26 10:38:30;;;;;;;7.32;2.42;;;17.60;96.30;;;;;;5037654;28;20398;-69
2022/07/26 10:41:07;;;;;;;7.63;1.77;;;17.70;93.20;;;;;;5057240;28;20095;-69
2022/07/26 10:43:33;;;;;;;9.65;2.20;;;17.70;90.40;;;;;;5051497;28;20048;-70
2022/07/26 10:46:17;;;;;;;10.43;2.10;;;17.70;91.60;;;;;;5063063;28;20036;-69
2022/07/26 10:49:03;;;;;;;15.32;3.75;;;17.80;89.00;;;;;;5064048;28;20533;-69
2022/07/26 10:51:39;;;;;;;11.68;2.35;;;17.90;94.10;;;;;;5052479;28;20483;-69
2022/07/26 10:54:10;;;;;;;10.73;1.75;;;17.90;91.00;;;;;;5052328;28;20399;-69
2022/07/26 10:56:37;;;;;;;8.98;2.10;;;18.10;86.70;;;;;;5059073;28;20558;-70
2022/07/26 10:59:04;;;;;;;8.02;1.60;;;18.10;87.30;;;;;;5064460;28;20417;-69
2022/07/26 11:01:34;;;;;;;5.90;1.38;;;18.10;72.70;;;;;;5067381;28;20041;-69
2022/07/26 11:03:59;;;;;;;10.05;1.80;;;18.20;80.90;;;;;;5031528;28;20048;-69
2022/07/26 11:06:28;;;;;;;8.23;1.88;;;18.20;80.50;;;;;;5049729;28;20462;-69
2022/07/26 11:08:55;;;;;;;9.48;1.50;;;18.30;73.10;;;;;;5061240;28;20051;-69
2022/07/26 11:11:31;;;;;;;6.22;1.58;;;18.30;74.90;;;;;;5052906;28;20491;-70
2022/07/26 11:14:08;;;;;;;5.38;1.55;;;18.40;73.90;;;;;;5055917;28;20052;-69
2022/07/26 11:16:48;;;;;;;10.02;1.92;;;18.40;84.20;;;;;;5059536;28;20041;-69
2022/07/26 11:19:19;;;;;;;11.77;1.40;;;18.30;80.60;;;;;;5031797;28;20057;-69
2022/07/26 11:21:51;;;;;;;15.20;2.17;;;18.30;81.60;;;;;;5039230;28;20049;-69
2022/07/26 11:24:17;;;;;;;3.55;1.35;;;18.50;80.70;;;;;;5047845;28;20044;-69
2022/07/26 11:26:45;;;;;;;6.00;1.38;;;18.40;72.00;;;;;;5035604;28;20063;-68
2022/07/26 11:29:12;;;;;;;9.40;1.33;;;18.40;66.00;;;;;;5044598;28;20481;-69
2022/07/26 11:31:43;;;;;;;5.47;1.33;;;18.40;71.10;;;;;;5030487;28;20056;-68
2022/07/26 11:34:31;;;;;;;7.35;1.70;;;18.50;68.10;;;;;;5067693;28;20478;-68
2022/07/26 11:36:58;;;;;;;5.95;1.45;;;18.40;65.00;;;;;;5059670;28;20142;-68
2022/07/26 11:39:34;;;;;;;6.97;1.08;;;18.50;74.00;;;;;;5040667;28;20116;-68
2022/07/26 11:42:10;;;;;;;12.70;2.00;;;18.50;72.10;;;;;;5061856;28;20052;-69
2022/07/26 11:44:36;;;;;;;5.97;1.38;;;18.40;71.40;;;;;;5048474;28;20131;-69
2022/07/26 11:47:21;;;;;;;3.17;1.00;;;18.40;57.40;;;;;;5043097;28;20131;-69
2022/07/26 11:49:48;;;;;;;9.95;1.58;;;18.50;67.70;;;;;;5061329;28;20052;-68
2022/07/26 11:52:14;;;;;;;7.80;1.48;;;18.60;66.50;;;;;;5054229;28;20035;-68
2022/07/26 11:54:44;;;;;;;8.98;1.88;;;18.70;66.30;;;;;;5039325;28;20131;-68
2022/07/26 11:57:10;;;;;;;8.73;1.50;;;18.80;67.90;;;;;;5052831;28;20916;-68
2022/07/26 11:59:37;;;;;;;7.70;1.52;;;18.80;69.70;;;;;;5067388;28;20079;-69
2022/07/26 12:02:05;;;;;;;7.90;1.58;;;18.80;73.00;;;;;;5046455;28;20044;-69
2022/07/26 12:04:39;;;;;;;7.38;1.60;;;18.90;65.70;;;;;;5045159;28;20040;-69
2022/07/26 12:07:13;;;;;;;3.33;1.15;;;18.90;60.60;;;;;;5046680;28;20040;-68
2022/07/26 12:09:45;;;;;;;4.75;1.25;;;19.10;63.70;;;;;;5053383;28;20419;-69
2022/07/26 12:12:37;;;;;;;2.50;1.15;;;19.40;69.90;;;;;;5036946;28;20049;-69
2022/07/26 12:15:06;;;;;;;5.03;1.00;;;19.50;41.30;;;;;;5034414;28;20580;-68
2022/07/26 12:17:32;;;;;;;5.82;1.20;;;19.30;49.50;;;;;;5033859;28;20075;-69
2022/07/26 12:20:12;;;;;;;7.72;0.80;;;19.20;45.10;;;;;;5048285;28;20041;-68
2022/07/26 12:22:38;;;;;;;1.88;0.95;;;19.30;47.40;;;;;;5051002;28;20136;-69
2022/07/26 12:25:05;;;;;;;4.85;1.02;;;19.30;45.60;;;;;;5048182;28;20115;-68
2022/07/26 12:27:32;;;;;;;2.72;0.95;;;19.10;29.20;;;;;;5028174;28;20044;-69
2022/07/26 12:30:01;;;;;;;3.22;1.13;;;19.10;43.20;;;;;;5029749;28;20160;-69
2022/07/26 12:32:32;;;;;;;5.88;1.83;;;19.10;54.80;;;;;;5054153;28;20072;-69
2022/07/26 12:34:58;;;;;;;2.15;0.85;;;19.10;63.60;;;;;;5046295;28;20087;-70
2022/07/26 12:37:24;;;;;;;3.78;1.10;;;19.00;55.00;;;;;;5039678;28;20107;-70
2022/07/26 12:40:08;;;;;;;6.00;1.23;;;18.90;65.10;;;;;;5050036;28;20164;-69
2022/07/26 12:42:38;;;;;;;3.90;1.25;;;18.90;62.70;;;;;;5039398;28;20431;-69
2022/07/26 12:45:07;;;;;;;5.20;1.17;;;18.70;66.90;;;;;;5052616;28;20058;-69
2022/07/26 12:47:34;;;;;;;7.43;1.58;;;18.60;72.00;;;;;;5056693;28;20398;-69